sensor_id;sensor_type;location;lat;lon;timestamp;temperature;humidity
11656;DHT22;5884;43.618;1.438;2023-07-20T04:47:24;19.40;99.90
11656;DHT22;5884;43.618;1.438;2023-07-20T04:49:51;19.40;99.90
11656;DHT22;5884;43.618;1.438;2023-07-20T04:52:19;19.40;99.90
11656;DHT22;5884;43.618;1.438;2023-07-20T04:54:46;19.50;99.90
11656;DHT22;5884;43.618;1.438;2023-07-20T04:57:13;19.40;99.90
11656;DHT22;5884;43.618;1.438;2023-07-20T04:59:40;19.40;99.90
11656;DHT22;5884;43.618;1.438;2023-07-20T05:02:07;19.40;99.90
11656;DHT22;5884;43.618;1.438;2023-07-20T05:04:36;19.40;99.90
11656;DHT22;5884;43.618;1.438;2023-07-20T05:07:04;19.50;99.90
11656;DHT22;5884;43.618;1.438;2023-07-20T05:09:31;19.40;99.90
11656;DHT22;5884;43.618;1.438;2023-07-20T05:11:58;19.50;99.90
11656;DHT22;5884;43.618;1.438;2023-07-20T05:14:25;19.50;99.90
11656;DHT22;5884;43.618;1.438;2023-07-20T05:16:53;19.50;99.90
11656;DHT22;5884;43.618;1.438;2023-07-20T05:19:20;19.50;99.90
11656;DHT22;5884;43.618;1.438;2023-07-20T05:21:51;19.50;99.90
11656;DHT22;5884;43.618;1.438;2023-07-20T05:24:18;19.50;99.90
11656;DHT22;5884;43.618;1.438;2023-07-20T05:26:45;19.50;99.90
11656;DHT22;5884;43.618;1.438;2023-07-20T05:29:12;19.50;99.90
11656;DHT22;5884;43.618;1.438;2023-07-20T05:31:40;19.50;99.90
11656;DHT22;5884;43.618;1.438;2023-07-20T05:34:07;19.60;99.90
11656;DHT22;5884;43.618;1.438;2023-07-20T05:36:34;19.60;99.90
11656;DHT22;5884;43.618;1.438;2023-07-20T05:39:03;19.60;99.90
11656;DHT22;5884;43.618;1.438;2023-07-20T05:41:31;19.60;99.90
11656;DHT22;5884;43.618;1.438;2023-07-20T05:43:58;19.50;99.90
11656;DHT22;5884;43.618;1.438;2023-07-20T05:46:25;19.60;99.90
11656;DHT22;5884;43.618;1.438;2023-07-20T05:48:52;19.60;99.90
11656;DHT22;5884;43.618;1.438;2023-07-20T05:51:19;19.60;99.90
11656;DHT22;5884;43.618;1.438;2023-07-20T05:53:47;19.60;99.90
11656;DHT22;5884;43.618;1.438;2023-07-20T05:56:15;19.60;99.90
11656;DHT22;5884;43.618;1.438;2023-07-20T05:58:42;19.60;99.90
11656;DHT22;5884;43.618;1.438;2023-07-20T06:01:10;19.70;99.90
11656;DHT22;5884;43.618;1.438;2023-07-20T06:03:37;19.70;99.90
11656;DHT22;5884;43.618;1.438;2023-07-20T06:06:04;19.70;99.90
11656;DHT22;5884;43.618;1.438;2023-07-20T06:08:32;19.60;99.90
11656;DHT22;5884;43.618;1.438;2023-07-20T06:11:02;19.80;99.90
11656;DHT22;5884;43.618;1.438;2023-07-20T06:13:30;19.80;99.90
11656;DHT22;5884;43.618;1.438;2023-07-20T06:15:57;19.80;99.90
11656;DHT22;5884;43.618;1.438;2023-07-20T06:18:25;19.90;99.90
11656;DHT22;5884;43.618;1.438;2023-07-20T06:20:52;19.90;99.90
11656;DHT22;5884;43.618;1.438;2023-07-20T06:23:19;20.00;99.90
11656;DHT22;5884;43.618;1.438;2023-07-20T06:25:47;20.00;99.90
11656;DHT22;5884;43.618;1.438;2023-07-20T06:28:14;20.10;99.90
11656;DHT22;5884;43.618;1.438;2023-07-20T06:30:43;20.10;99.90
11656;DHT22;5884;43.618;1.438;2023-07-20T06:33:10;20.00;99.90
11656;DHT22;5884;43.618;1.438;2023-07-20T06:35:37;20.00;99.90
11656;DHT22;5884;43.618;1.438;2023-07-20T06:38:04;20.10;99.90
11656;DHT22;5884;43.618;1.438;2023-07-20T06:40:32;20.10;99.90
11656;DHT22;5884;43.618;1.438;2023-07-20T06:42:59;20.20;99.90
11656;DHT22;5884;43.618;1.438;2023-07-20T06:45:26;20.10;99.90
11656;DHT22;5884;43.618;1.438;2023-07-20T06:47:55;20.30;99.90
11656;DHT22;5884;43.618;1.438;2023-07-20T06:50:22;20.30;99.90
11656;DHT22;5884;43.618;1.438;2023-07-20T06:52:49;20.30;99.90
11656;DHT22;5884;43.618;1.438;2023-07-20T06:55:16;20.30;99.90
11656;DHT22;5884;43.618;1.438;2023-07-20T06:57:44;20.30;99.90
11656;DHT22;5884;43.618;1.438;2023-07-20T07:00:12;20.30;99.90
11656;DHT22;5884;43.618;1.438;2023-07-20T07:02:40;20.30;99.90
11656;DHT22;5884;43.618;1.438;2023-07-20T07:05:09;20.30;99.90
11656;DHT22;5884;43.618;1.438;2023-07-20T07:07:36;20.40;99.90
11656;DHT22;5884;43.618;1.438;2023-07-20T07:10:04;20.50;99.90
11656;DHT22;5884;43.618;1.438;2023-07-20T07:12:32;20.50;99.90
11656;DHT22;5884;43.618;1.438;2023-07-20T07:15:00;20.50;99.90
11656;DHT22;5884;43.618;1.438;2023-07-20T07:17:27;20.60;99.90
11656;DHT22;5884;43.618;1.438;2023-07-20T07:19:55;20.60;99.90
11656;DHT22;5884;43.618;1.438;2023-07-20T07:22:23;20.80;99.90
11656;DHT22;5884;43.618;1.438;2023-07-20T07:24:51;20.80;99.90
11656;DHT22;5884;43.618;1.438;2023-07-20T07:27:18;21.00;99.90
11656;DHT22;5884;43.618;1.438;2023-07-20T07:29:45;21.10;99.90
11656;DHT22;5884;43.618;1.438;2023-07-20T07:32:14;21.20;99.90
11656;DHT22;5884;43.618;1.438;2023-07-20T07:34:41;21.10;99.90
11656;DHT22;5884;43.618;1.438;2023-07-20T07:37:12;21.10;99.90
11656;DHT22;5884;43.618;1.438;2023-07-20T07:39:40;21.20;99.90
11656;DHT22;5884;43.618;1.438;2023-07-20T07:42:08;21.20;99.90
11656;DHT22;5884;43.618;1.438;2023-07-20T07:44:35;21.20;99.90
11656;DHT22;5884;43.618;1.438;2023-07-20T07:47:02;21.30;99.90
11656;DHT22;5884;43.618;1.438;2023-07-20T07:49:30;21.30;99.90
11656;DHT22;5884;43.618;1.438;2023-07-20T07:51:57;21.40;99.90
11656;DHT22;5884;43.618;1.438;2023-07-20T07:54:24;21.40;99.90
11656;DHT22;5884;43.618;1.438;2023-07-20T07:56:53;21.50;99.90
11656;DHT22;5884;43.618;1.438;2023-07-20T07:59:20;21.50;99.90
11656;DHT22;5884;43.618;1.438;2023-07-20T08:01:47;21.60;99.90
11656;DHT22;5884;43.618;1.438;2023-07-20T08:04:14;21.90;99.90
11656;DHT22;5884;43.618;1.438;2023-07-20T08:06:41;21.90;99.90
11656;DHT22;5884;43.618;1.438;2023-07-20T08:09:09;21.90;99.90
11656;DHT22;5884;43.618;1.438;2023-07-20T08:11:36;22.00;99.90
11656;DHT22;5884;43.618;1.438;2023-07-20T08:14:07;22.10;99.90
11656;DHT22;5884;43.618;1.438;2023-07-20T08:16:34;22.10;99.90
11656;DHT22;5884;43.618;1.438;2023-07-20T08:19:01;22.30;99.90
11656;DHT22;5884;43.618;1.438;2023-07-20T08:21:29;22.50;99.90
11656;DHT22;5884;43.618;1.438;2023-07-20T08:23:56;22.40;99.90
11656;DHT22;5884;43.618;1.438;2023-07-20T08:26:23;22.60;99.90
11656;DHT22;5884;43.618;1.438;2023-07-20T08:28:50;22.80;99.90
11656;DHT22;5884;43.618;1.438;2023-07-20T08:31:19;22.70;99.90
11656;DHT22;5884;43.618;1.438;2023-07-20T08:33:47;22.70;99.90
11656;DHT22;5884;43.618;1.438;2023-07-20T08:36:14;22.90;99.90
11656;DHT22;5884;43.618;1.438;2023-07-20T08:38:41;22.80;99.90
11656;DHT22;5884;43.618;1.438;2023-07-20T08:41:09;23.00;99.90
11656;DHT22;5884;43.618;1.438;2023-07-20T08:43:37;23.10;99.90
11656;DHT22;5884;43.618;1.438;2023-07-20T08:46:11;23.20;99.90
11656;DHT22;5884;43.618;1.438;2023-07-20T08:48:42;23.20;99.90
11656;DHT22;5884;43.618;1.438;2023-07-20T08:51:10;23.30;99.90
11656;DHT22;5884;43.618;1.438;2023-07-20T08:53:38;23.30;99.90
11656;DHT22;5884;43.618;1.438;2023-07-20T08:56:06;23.30;99.90
11656;DHT22;5884;43.618;1.438;2023-07-20T08:58:36;23.40;99.90
11656;DHT22;5884;43.618;1.438;2023-07-20T09:01:05;23.70;99.90
11656;DHT22;5884;43.618;1.438;2023-07-20T09:03:33;23.80;99.90
11656;DHT22;5884;43.618;1.438;2023-07-20T09:06:02;23.80;99.90
11656;DHT22;5884;43.618;1.438;2023-07-20T09:08:29;24.10;99.90
11656;DHT22;5884;43.618;1.438;2023-07-20T09:10:56;24.10;99.90
11656;DHT22;5884;43.618;1.438;2023-07-20T09:13:25;24.30;99.90
11656;DHT22;5884;43.618;1.438;2023-07-20T09:15:54;24.20;99.90
11656;DHT22;5884;43.618;1.438;2023-07-20T09:18:24;24.20;99.90
11656;DHT22;5884;43.618;1.438;2023-07-20T09:20:52;24.30;99.90
11656;DHT22;5884;43.618;1.438;2023-07-20T09:23:29;24.40;99.90
11656;DHT22;5884;43.618;1.438;2023-07-20T09:25:58;24.60;99.90
11656;DHT22;5884;43.618;1.438;2023-07-20T09:28:25;24.50;99.90
11656;DHT22;5884;43.618;1.438;2023-07-20T09:30:54;24.60;99.90
11656;DHT22;5884;43.618;1.438;2023-07-20T09:33:24;24.80;99.90
11656;DHT22;5884;43.618;1.438;2023-07-20T09:35:51;24.70;99.90
11656;DHT22;5884;43.618;1.438;2023-07-20T09:38:19;24.80;99.90
11656;DHT22;5884;43.618;1.438;2023-07-20T09:40:48;24.80;99.90
11656;DHT22;5884;43.618;1.438;2023-07-20T09:43:16;24.80;99.90
11656;DHT22;5884;43.618;1.438;2023-07-20T09:45:43;24.80;99.90
11656;DHT22;5884;43.618;1.438;2023-07-20T09:48:11;25.00;99.90
11656;DHT22;5884;43.618;1.438;2023-07-20T09:50:43;25.10;99.90
11656;DHT22;5884;43.618;1.438;2023-07-20T09:53:15;25.20;99.90
11656;DHT22;5884;43.618;1.438;2023-07-20T09:55:46;25.10;99.90
11656;DHT22;5884;43.618;1.438;2023-07-20T09:58:14;25.30;99.90
11656;DHT22;5884;43.618;1.438;2023-07-20T10:00:42;25.40;99.90
11656;DHT22;5884;43.618;1.438;2023-07-20T10:03:16;25.40;99.90
11656;DHT22;5884;43.618;1.438;2023-07-20T10:05:51;25.40;99.90
11656;DHT22;5884;43.618;1.438;2023-07-20T10:08:19;25.60;99.90
11656;DHT22;5884;43.618;1.438;2023-07-20T10:10:49;25.80;99.90
11656;DHT22;5884;43.618;1.438;2023-07-20T10:13:18;25.90;99.90
11656;DHT22;5884;43.618;1.438;2023-07-20T10:15:53;26.00;99.90
11656;DHT22;5884;43.618;1.438;2023-07-20T10:18:28;26.00;99.90
11656;DHT22;5884;43.618;1.438;2023-07-20T10:20:57;25.90;99.90
11656;DHT22;5884;43.618;1.438;2023-07-20T10:23:29;26.00;99.90
11656;DHT22;5884;43.618;1.438;2023-07-20T10:25:59;25.80;99.90
11656;DHT22;5884;43.618;1.438;2023-07-20T10:28:28;25.70;99.90
11656;DHT22;5884;43.618;1.438;2023-07-20T10:30:55;25.50;99.90
11656;DHT22;5884;43.618;1.438;2023-07-20T10:33:24;25.60;99.90
11656;DHT22;5884;43.618;1.438;2023-07-20T10:35:52;25.80;99.90
11656;DHT22;5884;43.618;1.438;2023-07-20T10:38:20;25.50;99.90
11656;DHT22;5884;43.618;1.438;2023-07-20T10:40:57;25.70;99.90
11656;DHT22;5884;43.618;1.438;2023-07-20T10:43:25;26.10;99.90
11656;DHT22;5884;43.618;1.438;2023-07-20T10:45:53;26.10;99.90
11656;DHT22;5884;43.618;1.438;2023-07-20T10:48:22;26.10;99.90
11656;DHT22;5884;43.618;1.438;2023-07-20T10:51:19;26.10;99.90
11656;DHT22;5884;43.618;1.438;2023-07-20T10:53:48;26.40;99.90
11656;DHT22;5884;43.618;1.438;2023-07-20T10:56:20;26.50;99.90
11656;DHT22;5884;43.618;1.438;2023-07-20T10:58:48;26.80;99.90
11656;DHT22;5884;43.618;1.438;2023-07-20T11:01:17;26.90;99.90
11656;DHT22;5884;43.618;1.438;2023-07-20T11:03:49;26.70;99.90
11656;DHT22;5884;43.618;1.438;2023-07-20T11:06:30;26.80;99.90
11656;DHT22;5884;43.618;1.438;2023-07-20T11:09:04;26.60;99.90
11656;DHT22;5884;43.618;1.438;2023-07-20T11:11:35;26.80;99.90
11656;DHT22;5884;43.618;1.438;2023-07-20T11:14:04;26.80;99.90
11656;DHT22;5884;43.618;1.438;2023-07-20T11:16:38;26.90;99.90
11656;DHT22;5884;43.618;1.438;2023-07-20T11:19:15;27.00;99.90
11656;DHT22;5884;43.618;1.438;2023-07-20T11:21:45;27.10;99.90
11656;DHT22;5884;43.618;1.438;2023-07-20T11:24:13;26.90;99.90
11656;DHT22;5884;43.618;1.438;2023-07-20T11:26:45;26.80;99.90
11656;DHT22;5884;43.618;1.438;2023-07-20T11:29:15;27.10;99.90
11656;DHT22;5884;43.618;1.438;2023-07-20T11:31:44;27.00;99.90
11656;DHT22;5884;43.618;1.438;2023-07-20T11:34:13;27.30;99.90
11656;DHT22;5884;43.618;1.438;2023-07-20T11:36:42;27.20;99.90
11656;DHT22;5884;43.618;1.438;2023-07-20T11:39:12;27.30;99.90
11656;DHT22;5884;43.618;1.438;2023-07-20T11:41:46;27.20;99.90
11656;DHT22;5884;43.618;1.438;2023-07-20T11:44:16;27.20;99.90
11656;DHT22;5884;43.618;1.438;2023-07-20T11:46:44;27.30;99.90
11656;DHT22;5884;43.618;1.438;2023-07-20T11:49:11;27.20;99.90
11656;DHT22;5884;43.618;1.438;2023-07-20T11:51:40;27.10;99.90
11656;DHT22;5884;43.618;1.438;2023-07-20T11:54:08;27.30;99.90
11656;DHT22;5884;43.618;1.438;2023-07-20T11:56:36;27.20;99.90
11656;DHT22;5884;43.618;1.438;2023-07-20T11:59:04;27.30;99.90
11656;DHT22;5884;43.618;1.438;2023-07-20T12:01:33;27.40;99.90
11656;DHT22;5884;43.618;1.438;2023-07-20T12:04:02;27.50;99.90
11656;DHT22;5884;43.618;1.438;2023-07-20T12:06:30;27.50;99.90
11656;DHT22;5884;43.618;1.438;2023-07-20T12:08:58;27.70;99.90
11656;DHT22;5884;43.618;1.438;2023-07-20T12:11:34;27.80;99.90
11656;DHT22;5884;43.618;1.438;2023-07-20T12:14:06;27.50;99.90
11656;DHT22;5884;43.618;1.438;2023-07-20T12:16:35;27.50;99.90
11656;DHT22;5884;43.618;1.438;2023-07-20T12:19:05;27.70;99.90
11656;DHT22;5884;43.618;1.438;2023-07-20T12:21:34;27.70;99.90
11656;DHT22;5884;43.618;1.438;2023-07-20T12:24:04;27.90;99.90
11656;DHT22;5884;43.618;1.438;2023-07-20T12:26:32;28.00;99.90
11656;DHT22;5884;43.618;1.438;2023-07-20T12:29:00;27.90;99.90
11656;DHT22;5884;43.618;1.438;2023-07-20T12:31:33;27.90;99.90
11656;DHT22;5884;43.618;1.438;2023-07-20T12:34:01;27.70;99.90
11656;DHT22;5884;43.618;1.438;2023-07-20T12:36:28;27.60;99.90
11656;DHT22;5884;43.618;1.438;2023-07-20T12:38:56;27.70;99.90
11656;DHT22;5884;43.618;1.438;2023-07-20T12:41:24;27.90;99.90
11656;DHT22;5884;43.618;1.438;2023-07-20T12:43:51;28.00;99.90
11656;DHT22;5884;43.618;1.438;2023-07-20T12:46:19;28.10;99.90
11656;DHT22;5884;43.618;1.438;2023-07-20T12:48:47;28.10;99.90
11656;DHT22;5884;43.618;1.438;2023-07-20T12:51:15;28.10;99.90
11656;DHT22;5884;43.618;1.438;2023-07-20T12:53:42;28.00;99.90
11656;DHT22;5884;43.618;1.438;2023-07-20T12:56:09;28.40;99.90
11656;DHT22;5884;43.618;1.438;2023-07-20T12:58:36;28.40;99.90
11656;DHT22;5884;43.618;1.438;2023-07-20T13:01:04;28.30;99.90
11656;DHT22;5884;43.618;1.438;2023-07-20T13:03:31;28.40;99.90
11656;DHT22;5884;43.618;1.438;2023-07-20T13:06:00;28.40;99.90
11656;DHT22;5884;43.618;1.438;2023-07-20T13:08:27;28.40;99.90
11656;DHT22;5884;43.618;1.438;2023-07-20T13:10:54;28.40;99.90
11656;DHT22;5884;43.618;1.438;2023-07-20T13:13:21;28.50;99.90
11656;DHT22;5884;43.618;1.438;2023-07-20T13:15:48;28.50;99.90
11656;DHT22;5884;43.618;1.438;2023-07-20T13:18:16;28.40;99.90
11656;DHT22;5884;43.618;1.438;2023-07-20T13:20:44;28.40;99.90
11656;DHT22;5884;43.618;1.438;2023-07-20T13:23:12;28.30;99.90
11656;DHT22;5884;43.618;1.438;2023-07-20T13:25:40;28.50;99.90
11656;DHT22;5884;43.618;1.438;2023-07-20T13:28:08;28.80;99.90
11656;DHT22;5884;43.618;1.438;2023-07-20T13:30:35;28.90;99.90
11656;DHT22;5884;43.618;1.438;2023-07-20T13:33:02;28.90;99.90
11656;DHT22;5884;43.618;1.438;2023-07-20T13:35:29;29.00;99.90
11656;DHT22;5884;43.618;1.438;2023-07-20T13:37:56;28.80;99.90
11656;DHT22;5884;43.618;1.438;2023-07-20T13:40:25;28.90;99.90
11656;DHT22;5884;43.618;1.438;2023-07-20T13:42:52;28.80;99.90
11656;DHT22;5884;43.618;1.438;2023-07-20T13:45:19;28.80;99.90
11656;DHT22;5884;43.618;1.438;2023-07-20T13:47:46;28.80;99.90
11656;DHT22;5884;43.618;1.438;2023-07-20T13:50:14;29.00;99.90
11656;DHT22;5884;43.618;1.438;2023-07-20T13:52:41;29.00;99.90
11656;DHT22;5884;43.618;1.438;2023-07-20T13:55:08;29.00;99.90
11656;DHT22;5884;43.618;1.438;2023-07-20T13:57:37;29.10;99.90
11656;DHT22;5884;43.618;1.438;2023-07-20T14:00:05;29.00;99.90
11656;DHT22;5884;43.618;1.438;2023-07-20T14:02:34;28.80;99.90
11656;DHT22;5884;43.618;1.438;2023-07-20T14:05:02;28.60;99.90
11656;DHT22;5884;43.618;1.438;2023-07-20T14:07:29;28.60;99.90
11656;DHT22;5884;43.618;1.438;2023-07-20T14:09:57;28.80;99.90
11656;DHT22;5884;43.618;1.438;2023-07-20T14:12:24;28.70;99.90
11656;DHT22;5884;43.618;1.438;2023-07-20T14:14:53;28.80;99.90
11656;DHT22;5884;43.618;1.438;2023-07-20T14:17:21;28.90;99.90
11656;DHT22;5884;43.618;1.438;2023-07-20T14:19:48;28.70;99.90
11656;DHT22;5884;43.618;1.438;2023-07-20T14:22:16;28.80;99.90
11656;DHT22;5884;43.618;1.438;2023-07-20T14:24:44;28.80;99.90
11656;DHT22;5884;43.618;1.438;2023-07-20T14:27:11;28.90;99.90
11656;DHT22;5884;43.618;1.438;2023-07-20T14:29:38;28.80;99.90
11656;DHT22;5884;43.618;1.438;2023-07-20T14:32:07;28.80;99.90
11656;DHT22;5884;43.618;1.438;2023-07-20T14:34:34;28.90;99.90
11656;DHT22;5884;43.618;1.438;2023-07-20T14:37:02;28.90;99.90
11656;DHT22;5884;43.618;1.438;2023-07-20T14:39:29;28.90;99.90
11656;DHT22;5884;43.618;1.438;2023-07-20T14:41:57;29.00;99.90
11656;DHT22;5884;43.618;1.438;2023-07-20T14:44:25;29.00;99.90
11656;DHT22;5884;43.618;1.438;2023-07-20T14:46:52;29.00;99.90
11656;DHT22;5884;43.618;1.438;2023-07-20T14:49:20;28.90;99.90
11656;DHT22;5884;43.618;1.438;2023-07-20T14:51:48;29.00;99.90
11656;DHT22;5884;43.618;1.438;2023-07-20T14:54:15;29.20;99.90
11656;DHT22;5884;43.618;1.438;2023-07-20T14:56:49;29.00;99.90
11656;DHT22;5884;43.618;1.438;2023-07-20T14:59:18;28.90;99.90
11656;DHT22;5884;43.618;1.438;2023-07-20T15:01:46;28.90;99.90
11656;DHT22;5884;43.618;1.438;2023-07-20T15:04:13;28.90;99.90
11656;DHT22;5884;43.618;1.438;2023-07-20T15:06:42;29.20;99.90
11656;DHT22;5884;43.618;1.438;2023-07-20T15:09:09;29.20;99.90
11656;DHT22;5884;43.618;1.438;2023-07-20T15:11:36;29.20;99.90
11656;DHT22;5884;43.618;1.438;2023-07-20T15:14:04;29.10;99.90
11656;DHT22;5884;43.618;1.438;2023-07-20T15:16:31;29.20;99.90
11656;DHT22;5884;43.618;1.438;2023-07-20T15:18:58;28.90;99.90
11656;DHT22;5884;43.618;1.438;2023-07-20T15:21:25;29.00;99.90
11656;DHT22;5884;43.618;1.438;2023-07-20T15:23:57;29.00;99.90
11656;DHT22;5884;43.618;1.438;2023-07-20T15:26:24;29.20;99.90
11656;DHT22;5884;43.618;1.438;2023-07-20T15:28:51;29.10;99.90
11656;DHT22;5884;43.618;1.438;2023-07-20T15:31:19;29.10;99.90
11656;DHT22;5884;43.618;1.438;2023-07-20T15:33:46;29.00;99.90
11656;DHT22;5884;43.618;1.438;2023-07-20T15:36:13;29.20;99.90
11656;DHT22;5884;43.618;1.438;2023-07-20T15:38:40;29.20;99.90
11656;DHT22;5884;43.618;1.438;2023-07-20T15:41:09;29.30;99.90
11656;DHT22;5884;43.618;1.438;2023-07-20T15:43:37;29.20;99.90
11656;DHT22;5884;43.618;1.438;2023-07-20T15:49:21;29.00;99.90
11656;DHT22;5884;43.618;1.438;2023-07-20T15:51:50;29.00;99.90
11656;DHT22;5884;43.618;1.438;2023-07-20T15:54:17;29.10;99.90
11656;DHT22;5884;43.618;1.438;2023-07-20T15:56:46;29.20;99.90
11656;DHT22;5884;43.618;1.438;2023-07-20T15:59:14;29.10;99.90
11656;DHT22;5884;43.618;1.438;2023-07-20T16:01:43;29.10;99.90
11656;DHT22;5884;43.618;1.438;2023-07-20T16:04:11;29.30;99.90
11656;DHT22;5884;43.618;1.438;2023-07-20T16:06:40;29.30;99.90
11656;DHT22;5884;43.618;1.438;2023-07-20T16:09:07;29.30;99.90
11656;DHT22;5884;43.618;1.438;2023-07-20T16:11:35;29.00;99.90
11656;DHT22;5884;43.618;1.438;2023-07-20T16:14:06;28.70;99.90
11656;DHT22;5884;43.618;1.438;2023-07-20T16:16:34;28.70;99.90
11656;DHT22;5884;43.618;1.438;2023-07-20T16:19:02;28.80;99.90
11656;DHT22;5884;43.618;1.438;2023-07-20T16:21:29;29.00;99.90
11656;DHT22;5884;43.618;1.438;2023-07-20T16:23:57;29.10;99.90
11656;DHT22;5884;43.618;1.438;2023-07-20T16:26:25;28.90;99.90
11656;DHT22;5884;43.618;1.438;2023-07-20T16:28:52;28.60;99.90
11656;DHT22;5884;43.618;1.438;2023-07-20T16:31:21;28.60;99.90
11656;DHT22;5884;43.618;1.438;2023-07-20T16:33:48;28.80;99.90
11656;DHT22;5884;43.618;1.438;2023-07-20T16:36:16;28.60;99.90
11656;DHT22;5884;43.618;1.438;2023-07-20T16:38:43;28.60;99.90
11656;DHT22;5884;43.618;1.438;2023-07-20T16:41:12;28.70;99.90
11656;DHT22;5884;43.618;1.438;2023-07-20T16:43:39;28.70;99.90
11656;DHT22;5884;43.618;1.438;2023-07-20T16:46:07;28.50;99.90
11656;DHT22;5884;43.618;1.438;2023-07-20T16:48:37;28.40;99.90
11656;DHT22;5884;43.618;1.438;2023-07-20T16:51:05;28.40;99.90
11656;DHT22;5884;43.618;1.438;2023-07-20T16:53:32;28.50;99.90
11656;DHT22;5884;43.618;1.438;2023-07-20T16:55:59;28.60;99.90
11656;DHT22;5884;43.618;1.438;2023-07-20T16:58:27;28.50;99.90
11656;DHT22;5884;43.618;1.438;2023-07-20T17:01:01;28.60;99.90
11656;DHT22;5884;43.618;1.438;2023-07-20T17:03:30;28.50;99.90
11656;DHT22;5884;43.618;1.438;2023-07-20T17:05:59;28.40;99.90
11656;DHT22;5884;43.618;1.438;2023-07-20T17:08:26;28.20;99.90
11656;DHT22;5884;43.618;1.438;2023-07-20T17:10:53;28.20;99.90
11656;DHT22;5884;43.618;1.438;2023-07-20T17:13:21;28.20;99.90
11656;DHT22;5884;43.618;1.438;2023-07-20T17:15:48;28.20;99.90
11656;DHT22;5884;43.618;1.438;2023-07-20T17:18:16;28.10;99.90
11656;DHT22;5884;43.618;1.438;2023-07-20T17:20:44;28.00;99.90
11656;DHT22;5884;43.618;1.438;2023-07-20T17:23:13;28.10;99.90
11656;DHT22;5884;43.618;1.438;2023-07-20T17:25:44;28.00;99.90
11656;DHT22;5884;43.618;1.438;2023-07-20T17:28:12;28.10;99.90
11656;DHT22;5884;43.618;1.438;2023-07-20T17:30:39;28.10;99.90
11656;DHT22;5884;43.618;1.438;2023-07-20T17:33:06;27.90;99.90
11656;DHT22;5884;43.618;1.438;2023-07-20T17:35:34;28.00;99.90
11656;DHT22;5884;43.618;1.438;2023-07-20T17:38:01;28.00;99.90
11656;DHT22;5884;43.618;1.438;2023-07-20T17:40:30;27.90;99.90
11656;DHT22;5884;43.618;1.438;2023-07-20T17:42:57;27.80;99.90
11656;DHT22;5884;43.618;1.438;2023-07-20T17:45:25;27.70;99.90
11656;DHT22;5884;43.618;1.438;2023-07-20T17:47:52;27.70;99.90
11656;DHT22;5884;43.618;1.438;2023-07-20T17:50:19;27.70;99.90
11656;DHT22;5884;43.618;1.438;2023-07-20T17:52:47;27.50;99.90
11656;DHT22;5884;43.618;1.438;2023-07-20T17:55:14;27.50;99.90
11656;DHT22;5884;43.618;1.438;2023-07-20T17:57:43;27.50;99.90
11656;DHT22;5884;43.618;1.438;2023-07-20T18:00:11;27.40;99.90
11656;DHT22;5884;43.618;1.438;2023-07-20T18:02:41;27.40;99.90
11656;DHT22;5884;43.618;1.438;2023-07-20T18:05:08;27.30;99.90
11656;DHT22;5884;43.618;1.438;2023-07-20T18:07:35;27.20;99.90
11656;DHT22;5884;43.618;1.438;2023-07-20T18:10:07;27.10;99.90
11656;DHT22;5884;43.618;1.438;2023-07-20T18:12:34;27.10;99.90
11656;DHT22;5884;43.618;1.438;2023-07-20T18:15:04;27.10;99.90
11656;DHT22;5884;43.618;1.438;2023-07-20T18:17:32;27.00;99.90
11656;DHT22;5884;43.618;1.438;2023-07-20T18:20:00;27.00;99.90
11656;DHT22;5884;43.618;1.438;2023-07-20T18:22:27;26.80;99.90
11656;DHT22;5884;43.618;1.438;2023-07-20T18:24:54;26.70;99.90
11656;DHT22;5884;43.618;1.438;2023-07-20T18:27:22;26.70;99.90
11656;DHT22;5884;43.618;1.438;2023-07-20T18:29:49;26.60;99.90
11656;DHT22;5884;43.618;1.438;2023-07-20T18:32:19;26.50;99.90
11656;DHT22;5884;43.618;1.438;2023-07-20T18:34:46;26.50;99.90
11656;DHT22;5884;43.618;1.438;2023-07-20T18:37:13;26.40;99.90
11656;DHT22;5884;43.618;1.438;2023-07-20T18:39:44;26.40;99.90
11656;DHT22;5884;43.618;1.438;2023-07-20T18:42:12;26.30;99.90
11656;DHT22;5884;43.618;1.438;2023-07-20T18:44:40;26.30;99.90
11656;DHT22;5884;43.618;1.438;2023-07-20T18:47:07;26.00;99.90
11656;DHT22;5884;43.618;1.438;2023-07-20T18:49:37;26.10;99.90
11656;DHT22;5884;43.618;1.438;2023-07-20T18:52:05;26.10;99.90
11656;DHT22;5884;43.618;1.438;2023-07-20T18:54:32;26.10;99.90
11656;DHT22;5884;43.618;1.438;2023-07-20T18:56:59;26.00;99.90
11656;DHT22;5884;43.618;1.438;2023-07-20T18:59:27;25.90;99.90
11656;DHT22;5884;43.618;1.438;2023-07-20T19:01:54;25.80;99.90
11656;DHT22;5884;43.618;1.438;2023-07-20T19:04:22;25.80;99.90
11656;DHT22;5884;43.618;1.438;2023-07-20T19:06:51;25.70;99.90
11656;DHT22;5884;43.618;1.438;2023-07-20T19:09:18;25.60;99.90
11656;DHT22;5884;43.618;1.438;2023-07-20T19:11:46;25.60;99.90
11656;DHT22;5884;43.618;1.438;2023-07-20T19:14:13;25.60;99.90
11656;DHT22;5884;43.618;1.438;2023-07-20T19:16:40;25.50;99.90
11656;DHT22;5884;43.618;1.438;2023-07-20T19:19:07;25.40;99.90
11656;DHT22;5884;43.618;1.438;2023-07-20T19:21:35;25.30;99.90
11656;DHT22;5884;43.618;1.438;2023-07-20T19:24:04;25.30;99.90
11656;DHT22;5884;43.618;1.438;2023-07-20T19:26:31;25.20;99.90
11656;DHT22;5884;43.618;1.438;2023-07-20T19:28:59;25.20;99.90
11656;DHT22;5884;43.618;1.438;2023-07-20T19:31:26;25.10;99.90
11656;DHT22;5884;43.618;1.438;2023-07-20T19:33:53;25.00;99.90
11656;DHT22;5884;43.618;1.438;2023-07-20T19:36:20;25.00;99.90
11656;DHT22;5884;43.618;1.438;2023-07-20T19:38:48;25.00;99.90
11656;DHT22;5884;43.618;1.438;2023-07-20T19:41:15;25.00;99.90
11656;DHT22;5884;43.618;1.438;2023-07-20T19:43:42;25.00;99.90
11656;DHT22;5884;43.618;1.438;2023-07-20T19:46:10;25.00;99.90
11656;DHT22;5884;43.618;1.438;2023-07-20T19:48:37;25.00;99.90
11656;DHT22;5884;43.618;1.438;2023-07-20T19:51:05;25.00;99.90
11656;DHT22;5884;43.618;1.438;2023-07-20T19:53:32;25.00;99.90
11656;DHT22;5884;43.618;1.438;2023-07-20T19:56:00;25.00;99.90
11656;DHT22;5884;43.618;1.438;2023-07-20T19:58:29;25.00;99.90
11656;DHT22;5884;43.618;1.438;2023-07-20T20:00:56;24.90;99.90
11656;DHT22;5884;43.618;1.438;2023-07-20T20:03:24;24.90;99.90
11656;DHT22;5884;43.618;1.438;2023-07-20T20:05:52;24.80;99.90
11656;DHT22;5884;43.618;1.438;2023-07-20T20:08:19;24.90;99.90
11656;DHT22;5884;43.618;1.438;2023-07-20T20:10:47;24.80;99.90
11656;DHT22;5884;43.618;1.438;2023-07-20T20:13:14;24.80;99.90
11656;DHT22;5884;43.618;1.438;2023-07-20T20:15:43;24.80;99.90
11656;DHT22;5884;43.618;1.438;2023-07-20T20:18:10;24.70;99.90
11656;DHT22;5884;43.618;1.438;2023-07-20T20:20:37;24.60;99.90
11656;DHT22;5884;43.618;1.438;2023-07-20T20:23:16;24.60;99.90
11656;DHT22;5884;43.618;1.438;2023-07-20T20:25:45;24.60;99.90
11656;DHT22;5884;43.618;1.438;2023-07-20T20:28:13;24.60;99.90
11656;DHT22;5884;43.618;1.438;2023-07-20T20:30:43;24.50;99.90
11656;DHT22;5884;43.618;1.438;2023-07-20T20:33:14;24.40;99.90
11656;DHT22;5884;43.618;1.438;2023-07-20T20:35:42;24.50;99.90
11656;DHT22;5884;43.618;1.438;2023-07-20T20:38:10;24.40;99.90
11656;DHT22;5884;43.618;1.438;2023-07-20T20:40:43;24.50;99.90